createdAt,value
2019-05-06T00:00:24.745Z,5.57
2019-05-06T00:02:54.506Z,3.50
2019-05-06T00:05:25.367Z,6.13
2019-05-06T00:07:54.438Z,6.27
2019-05-06T00:10:26.370Z,6.50
2019-05-06T00:12:55.439Z,4.20
2019-05-06T00:15:24.106Z,3.93
2019-05-06T00:17:53.939Z,4.53
2019-05-06T00:20:24.287Z,5.27
2019-05-06T00:22:54.807Z,3.93
2019-05-06T00:25:36.705Z,7.33
2019-05-06T00:28:09.533Z,8.33
2019-05-06T00:30:39.762Z,5.00
2019-05-06T00:33:08.228Z,6.50
2019-05-06T00:35:36.700Z,6.13
2019-05-06T00:38:05.163Z,6.07
2019-05-06T00:40:35.416Z,5.07
2019-05-06T00:43:05.689Z,8.83
2019-05-06T00:45:34.306Z,6.37
2019-05-06T00:48:04.643Z,7.83
2019-05-06T00:50:34.878Z,10.83
2019-05-06T00:53:05.090Z,5.67
2019-05-06T00:55:33.880Z,6.37
2019-05-06T00:58:04.049Z,7.50
2019-05-06T01:00:34.391Z,10.93
2019-05-06T01:03:04.291Z,10.80
2019-05-06T01:05:33.730Z,5.97
2019-05-06T01:08:04.025Z,8.70
2019-05-06T01:10:34.354Z,8.17
2019-05-06T01:13:04.605Z,9.13
2019-05-06T01:15:34.345Z,9.10
2019-05-06T01:18:04.235Z,7.13
2019-05-06T01:20:33.937Z,9.70
2019-05-06T01:23:03.751Z,7.73
2019-05-06T01:25:34.437Z,11.67
2019-05-06T01:28:04.275Z,8.63
2019-05-06T01:30:33.680Z,10.80
2019-05-06T01:33:03.964Z,8.20
2019-05-06T01:35:32.532Z,6.60
2019-05-06T01:38:20.317Z,6.57
2019-05-06T01:40:56.148Z,8.10
2019-05-06T01:43:29.083Z,10.97
2019-05-06T01:45:57.631Z,13.50
2019-05-06T01:48:44.326Z,9.47
2019-05-06T01:51:14.301Z,11.30
2019-05-06T01:53:44.757Z,8.93
2019-05-06T01:56:14.523Z,6.47
2019-05-06T01:58:43.971Z,8.93
2019-05-06T02:01:14.754Z,9.60
2019-05-06T02:03:44.219Z,10.73
2019-05-06T02:06:14.048Z,7.87
2019-05-06T02:08:44.847Z,6.03
2019-05-06T02:11:14.826Z,6.60
2019-05-06T02:13:44.210Z,6.57
2019-05-06T02:16:14.558Z,7.30
2019-05-06T02:18:44.794Z,7.73
2019-05-06T02:21:23.861Z,9.33
2019-05-06T02:23:53.577Z,6.87
2019-05-06T02:26:23.895Z,7.13
2019-05-06T02:28:54.613Z,8.63
2019-05-06T02:31:40.787Z,8.40
2019-05-06T02:34:10.950Z,11.87
2019-05-06T02:36:45.599Z,10.13
2019-05-06T02:39:14.350Z,4.47
2019-05-06T02:41:43.146Z,7.60
2019-05-06T02:44:13.677Z,13.27
2019-05-06T02:46:44.234Z,8.10
2019-05-06T02:49:16.839Z,7.97
2019-05-06T02:51:45.296Z,8.03
2019-05-06T02:54:13.773Z,7.87
2019-05-06T02:56:43.495Z,10.80
2019-05-06T02:59:12.904Z,7.40
2019-05-06T03:01:43.224Z,6.17
2019-05-06T03:04:13.142Z,6.13
2019-05-06T03:06:44.580Z,9.60
2019-05-06T03:09:13.583Z,13.73
2019-05-06T03:11:43.817Z,7.10
2019-05-06T03:14:13.852Z,7.67
2019-05-06T03:16:43.923Z,10.23
2019-05-06T03:19:13.504Z,7.97
2019-05-06T03:21:44.849Z,8.50
2019-05-06T03:24:17.924Z,7.47
2019-05-06T03:26:47.318Z,9.10
2019-05-06T03:29:15.868Z,7.60
2019-05-06T03:31:46.401Z,9.83
2019-05-06T03:34:35.284Z,7.17
2019-05-06T03:36:48.261Z,12.43
2019-05-06T03:39:14.924Z,7.30
2019-05-06T03:41:43.906Z,10.73
2019-05-06T03:44:16.233Z,7.20
2019-05-06T03:46:50.434Z,5.90
2019-05-06T03:49:19.952Z,8.67
2019-05-06T03:51:48.410Z,6.13
2019-05-06T03:54:17.811Z,10.33
2019-05-06T03:56:46.977Z,14.00
2019-05-06T03:59:16.667Z,19.53
2019-05-06T04:01:45.195Z,6.33
2019-05-06T04:04:13.679Z,9.57
2019-05-06T04:06:43.621Z,6.53
2019-05-06T04:09:13.237Z,8.13
2019-05-06T04:11:43.353Z,7.90
2019-05-06T04:14:14.052Z,7.63
2019-05-06T04:16:44.469Z,10.37
2019-05-06T04:19:29.488Z,7.77
2019-05-06T04:22:05.688Z,9.70
2019-05-06T04:24:48.059Z,7.20
2019-05-06T04:27:46.308Z,9.77
2019-05-06T04:30:15.377Z,12.20
2019-05-06T04:32:44.003Z,10.23
2019-05-06T04:35:13.546Z,8.27
2019-05-06T04:37:43.109Z,9.07
2019-05-06T04:40:12.931Z,9.53
2019-05-06T04:42:44.442Z,10.57
2019-05-06T04:45:13.502Z,10.77
2019-05-06T04:47:43.451Z,15.33
2019-05-06T04:50:13.152Z,10.70
2019-05-06T04:52:43.358Z,7.43
2019-05-06T04:55:14.151Z,11.97
2019-05-06T04:57:44.131Z,15.03
2019-05-06T05:00:13.356Z,11.90
2019-05-06T05:02:43.074Z,7.40
2019-05-06T05:05:13.958Z,7.47
2019-05-06T05:07:42.922Z,5.60
2019-05-06T05:10:23.254Z,9.30
2019-05-06T05:13:09.625Z,7.30
2019-05-06T05:15:41.697Z,7.23
2019-05-06T05:18:14.427Z,9.13
2019-05-06T05:20:46.552Z,9.43
2019-05-06T05:23:13.120Z,10.37
2019-05-06T05:25:42.596Z,6.53
2019-05-06T05:28:13.141Z,9.07
2019-05-06T05:30:42.959Z,11.20
2019-05-06T05:33:12.215Z,9.60
2019-05-06T05:35:43.094Z,9.07
2019-05-06T05:38:12.972Z,6.70
2019-05-06T05:40:43.008Z,4.87
2019-05-06T05:43:16.125Z,6.57
2019-05-06T05:45:44.653Z,5.87
2019-05-06T05:48:23.856Z,10.63
2019-05-06T05:50:52.672Z,11.03
2019-05-06T05:53:22.499Z,6.20
2019-05-06T05:55:52.739Z,7.30
2019-05-06T05:58:24.587Z,7.63
2019-05-06T06:00:52.093Z,7.63
2019-05-06T06:03:22.079Z,11.23
2019-05-06T06:05:52.037Z,9.03
2019-05-06T06:08:22.828Z,6.70
2019-05-06T06:10:55.660Z,6.97
2019-05-06T06:13:24.306Z,9.20
2019-05-06T06:16:00.056Z,6.27
2019-05-06T06:18:36.979Z,6.80
2019-05-06T06:21:17.656Z,8.33
2019-05-06T06:23:39.263Z,5.87
2019-05-06T06:26:07.725Z,4.77
2019-05-06T06:28:36.416Z,9.13
2019-05-06T06:31:09.238Z,7.17
2019-05-06T06:33:37.736Z,6.27
2019-05-06T06:36:08.117Z,5.53
2019-05-06T06:38:47.115Z,5.23
2019-05-06T06:41:15.723Z,6.60
2019-05-06T06:43:46.142Z,9.43
2019-05-06T06:46:14.699Z,6.47
2019-05-06T06:48:43.770Z,5.23
2019-05-06T06:51:12.476Z,6.90
2019-05-06T06:53:42.092Z,9.37
2019-05-06T06:56:28.329Z,6.40
2019-05-06T06:59:08.845Z,7.90
2019-05-06T07:01:56.651Z,7.83
2019-05-06T07:04:28.570Z,7.40
2019-05-06T07:06:58.833Z,6.57
2019-05-06T07:09:29.701Z,5.27
2019-05-06T07:11:57.587Z,7.10
2019-05-06T07:14:26.055Z,7.87
2019-05-06T07:16:54.541Z,6.93
2019-05-06T07:19:27.388Z,5.17
2019-05-06T07:21:57.517Z,6.33
2019-05-06T07:24:25.991Z,4.83
2019-05-06T07:27:03.026Z,6.20
2019-05-06T07:29:32.789Z,4.67
2019-05-06T07:32:02.685Z,7.23
2019-05-06T07:34:32.184Z,3.83
2019-05-06T07:37:03.238Z,4.43
2019-05-06T07:39:33.183Z,5.43
2019-05-06T07:42:02.935Z,6.40
2019-05-06T07:44:49.098Z,5.37
2019-05-06T07:47:23.974Z,7.10
2019-05-06T07:49:53.146Z,9.63
2019-05-06T07:52:23.102Z,4.93
2019-05-06T07:54:53.317Z,5.57
2019-05-06T07:57:22.170Z,6.07
2019-05-06T07:59:52.473Z,5.13
2019-05-06T08:02:22.966Z,4.63
2019-05-06T08:04:52.972Z,6.13
2019-05-06T08:07:22.297Z,4.93
2019-05-06T08:09:52.872Z,4.13
2019-05-06T08:12:22.229Z,8.10
2019-05-06T08:14:52.384Z,6.00
2019-05-06T08:17:22.688Z,7.63
2019-05-06T08:19:52.884Z,5.67
2019-05-06T08:22:33.386Z,4.90
2019-05-06T08:25:03.455Z,7.30
2019-05-06T08:27:32.913Z,5.17
2019-05-06T08:30:02.515Z,7.47
2019-05-06T08:32:32.155Z,4.60
2019-05-06T08:35:03.122Z,5.83
2019-05-06T08:37:42.644Z,4.37
2019-05-06T08:40:12.068Z,3.37
2019-05-06T08:42:42.618Z,6.53
2019-05-06T08:45:12.835Z,6.57
2019-05-06T08:47:42.587Z,3.83
2019-05-06T08:50:13.246Z,4.23
2019-05-06T08:52:55.177Z,6.27
2019-05-06T08:55:28.337Z,5.20
2019-05-06T08:57:56.795Z,5.20
2019-05-06T09:00:25.353Z,5.70
2019-05-06T09:02:53.828Z,2.77
2019-05-06T09:05:22.380Z,4.03
2019-05-06T09:07:52.410Z,4.17
2019-05-06T09:10:22.687Z,5.53
2019-05-06T09:12:52.506Z,3.90
2019-05-06T09:15:22.006Z,3.47
2019-05-06T09:17:52.482Z,2.70
2019-05-06T09:20:20.818Z,4.57
2019-05-06T09:22:49.369Z,3.63
2019-05-06T09:25:17.917Z,4.27
2019-05-06T09:27:48.099Z,4.40
2019-05-06T09:30:29.801Z,3.70
2019-05-06T09:32:58.285Z,5.30
2019-05-06T09:35:26.828Z,3.40
2019-05-06T09:37:55.371Z,5.90
2019-05-06T09:40:23.948Z,4.23
2019-05-06T09:42:52.474Z,3.77
2019-05-06T09:45:22.764Z,3.83
2019-05-06T09:47:55.671Z,3.53
2019-05-06T09:50:45.442Z,3.90
2019-05-06T09:53:13.111Z,4.77
2019-05-06T09:55:59.624Z,2.80
2019-05-06T09:58:28.164Z,8.27
2019-05-06T10:00:58.288Z,3.27
2019-05-06T10:03:26.820Z,2.73
2019-05-06T10:05:55.314Z,1.67
2019-05-06T10:08:23.770Z,4.03
2019-05-06T10:10:58.663Z,3.63
2019-05-06T10:13:22.431Z,4.10
2019-05-06T10:15:52.069Z,3.87
2019-05-06T10:18:22.609Z,3.13
2019-05-06T10:20:50.820Z,5.00
2019-05-06T10:23:19.357Z,2.33
2019-05-06T10:25:47.992Z,2.80
2019-05-06T10:28:18.495Z,3.70
2019-05-06T10:30:47.015Z,4.77
2019-05-06T10:33:20.082Z,3.27
2019-05-06T10:35:48.546Z,1.30
2019-05-06T10:38:32.128Z,2.60
2019-05-06T10:41:07.766Z,2.53
2019-05-06T10:43:45.484Z,3.60
2019-05-06T10:46:14.425Z,4.70
2019-05-06T10:48:42.887Z,3.87
2019-05-06T10:51:14.229Z,2.43
2019-05-06T10:53:43.231Z,1.90
2019-05-06T10:56:13.409Z,1.10
2019-05-06T10:58:43.995Z,1.50
2019-05-06T11:01:19.572Z,3.63
2019-05-06T11:03:48.051Z,1.03
2019-05-06T11:06:16.660Z,1.50
2019-05-06T11:08:45.291Z,1.73
2019-05-06T11:11:19.994Z,1.70
2019-05-06T11:13:44.033Z,2.60
2019-05-06T11:16:12.984Z,2.13
2019-05-06T11:18:42.624Z,4.00
2019-05-06T11:21:12.779Z,2.63
2019-05-06T11:23:41.862Z,5.33
2019-05-06T11:26:10.485Z,6.07
2019-05-06T11:28:42.699Z,3.17
2019-05-06T11:31:24.366Z,1.87
2019-05-06T11:33:57.035Z,2.43
2019-05-06T11:36:37.665Z,2.80
2019-05-06T11:39:07.831Z,3.03
2019-05-06T11:41:36.429Z,3.30
2019-05-06T11:44:08.668Z,2.80
2019-05-06T11:46:35.346Z,2.67
2019-05-06T11:49:03.978Z,3.90
2019-05-06T11:51:33.224Z,2.37
2019-05-06T11:54:04.423Z,3.03
2019-05-06T11:56:32.715Z,2.63
2019-05-06T11:59:02.532Z,1.47
2019-05-06T12:01:44.906Z,1.43
2019-05-06T12:04:13.937Z,3.63
2019-05-06T12:06:42.625Z,2.20
2019-05-06T12:09:16.034Z,2.00
2019-05-06T12:11:43.276Z,2.97
2019-05-06T12:14:12.424Z,2.37
2019-05-06T12:16:41.266Z,1.37
2019-05-06T12:19:09.900Z,1.77
2019-05-06T12:21:38.442Z,3.73
2019-05-06T12:24:06.975Z,2.53
2019-05-06T12:26:35.503Z,2.70
2019-05-06T12:29:04.119Z,2.33
2019-05-06T12:31:33.040Z,1.83
2019-05-06T12:34:02.728Z,2.97
2019-05-06T12:36:32.567Z,4.23
2019-05-06T12:39:19.599Z,2.40
2019-05-06T12:42:07.743Z,2.70
2019-05-06T12:44:37.786Z,3.13
2019-05-06T12:47:07.969Z,2.83
2019-05-06T12:49:36.422Z,3.23
2019-05-06T12:52:05.531Z,2.03
2019-05-06T12:54:34.007Z,2.20
2019-05-06T12:57:03.281Z,2.00
2019-05-06T12:59:32.010Z,2.37
2019-05-06T13:02:02.690Z,2.20
2019-05-06T13:04:49.639Z,2.40
2019-05-06T13:07:02.962Z,1.87
2019-05-06T13:09:33.174Z,2.87
2019-05-06T13:12:03.934Z,2.07
2019-05-06T13:14:33.157Z,4.40
2019-05-06T13:17:02.619Z,3.37
2019-05-06T13:19:32.175Z,3.43
2019-05-06T13:22:03.750Z,3.03
2019-05-06T13:24:32.697Z,3.67
2019-05-06T13:27:02.559Z,3.87
2019-05-06T13:29:35.528Z,2.67
2019-05-06T13:32:03.398Z,4.17
2019-05-06T13:34:33.365Z,3.03
2019-05-06T13:37:02.084Z,3.20
2019-05-06T13:39:32.751Z,1.73
2019-05-06T13:42:00.939Z,2.67
2019-05-06T13:44:29.464Z,1.70
2019-05-06T13:46:57.960Z,3.80
2019-05-06T13:49:28.144Z,3.57
2019-05-06T13:52:01.068Z,2.97
2019-05-06T13:54:28.573Z,2.87
2019-05-06T13:56:57.240Z,3.97
2019-05-06T13:59:29.937Z,3.40
2019-05-06T14:02:06.134Z,3.90
2019-05-06T14:04:32.678Z,2.87
2019-05-06T14:07:03.457Z,3.10
2019-05-06T14:09:37.236Z,2.37
2019-05-06T14:12:02.647Z,3.90
2019-05-06T14:14:32.245Z,2.27
2019-05-06T14:17:00.818Z,3.40
2019-05-06T14:19:29.386Z,4.10
2019-05-06T14:21:57.867Z,2.30
2019-05-06T14:24:26.671Z,2.90
2019-05-06T14:26:58.961Z,2.10
2019-05-06T14:29:42.174Z,3.83
2019-05-06T14:32:14.372Z,3.37
2019-05-06T14:34:43.125Z,3.00
2019-05-06T14:37:11.220Z,2.23
2019-05-06T14:39:53.387Z,2.63
2019-05-06T14:42:14.424Z,6.37
2019-05-06T14:44:43.403Z,4.33
2019-05-06T14:47:16.073Z,3.23
2019-05-06T14:49:44.973Z,3.03
2019-05-06T14:52:13.535Z,2.10
2019-05-06T14:54:49.450Z,3.47
2019-05-06T14:57:18.856Z,2.57
2019-05-06T14:59:50.818Z,3.53
2019-05-06T15:02:18.979Z,4.00
2019-05-06T15:04:47.536Z,1.90
2019-05-06T15:07:16.140Z,2.90
2019-05-06T15:09:55.836Z,2.43
2019-05-06T15:12:14.937Z,2.57
2019-05-06T15:14:43.426Z,2.60
2019-05-06T15:17:14.234Z,2.67
2019-05-06T15:19:42.885Z,4.87
2019-05-06T15:22:13.002Z,3.70
2019-05-06T15:24:42.624Z,7.63
2019-05-06T15:27:11.966Z,3.60
2019-05-06T15:29:42.217Z,2.60
2019-05-06T15:32:15.086Z,3.27
2019-05-06T15:34:56.205Z,3.17
2019-05-06T15:37:37.574Z,3.93
2019-05-06T15:40:08.658Z,4.43
2019-05-06T15:42:37.135Z,3.73
2019-05-06T15:45:06.743Z,3.10
2019-05-06T15:47:35.232Z,2.03
2019-05-06T15:50:04.841Z,3.93
2019-05-06T15:52:33.464Z,4.07
2019-05-06T15:55:03.277Z,2.83
2019-05-06T15:57:32.791Z,3.17
2019-05-06T16:00:02.576Z,3.97
2019-05-06T16:02:31.288Z,4.90
2019-05-06T16:04:59.790Z,4.40
2019-05-06T16:07:28.328Z,3.13
2019-05-06T16:09:56.864Z,2.93
2019-05-06T16:12:25.347Z,2.23
2019-05-06T16:14:53.801Z,3.77
2019-05-06T16:17:23.766Z,4.00
2019-05-06T16:19:52.523Z,3.63
2019-05-06T16:22:22.559Z,3.77
2019-05-06T16:24:55.391Z,4.70
2019-05-06T16:27:23.891Z,3.87
2019-05-06T16:29:52.946Z,3.53
2019-05-06T16:32:22.017Z,2.87
2019-05-06T16:34:52.465Z,3.10
2019-05-06T16:37:22.240Z,3.00
2019-05-06T16:39:52.448Z,2.47
2019-05-06T16:42:22.402Z,2.80
2019-05-06T16:44:52.756Z,2.90
2019-05-06T16:47:36.874Z,4.03
2019-05-06T16:50:16.992Z,2.00
2019-05-06T16:52:45.865Z,2.77
2019-05-06T16:55:25.512Z,2.53
2019-05-06T16:58:02.445Z,2.17
2019-05-06T17:00:32.751Z,2.67
2019-05-06T17:03:18.691Z,3.47
2019-05-06T17:06:03.962Z,5.20
2019-05-06T17:08:33.311Z,2.00
2019-05-06T17:11:04.673Z,4.60
2019-05-06T17:13:34.013Z,2.37
2019-05-06T17:16:03.153Z,2.00
2019-05-06T17:18:32.976Z,3.87
2019-05-06T17:21:01.587Z,3.87
2019-05-06T17:23:32.384Z,3.87
2019-05-06T17:26:00.354Z,3.17
2019-05-06T17:28:39.544Z,2.20
2019-05-06T17:31:15.736Z,4.57
2019-05-06T17:33:45.763Z,5.43
2019-05-06T17:36:15.865Z,2.87
2019-05-06T17:38:52.533Z,1.50
2019-05-06T17:41:23.770Z,2.63
2019-05-06T17:43:52.145Z,3.63
2019-05-06T17:46:22.382Z,3.03
2019-05-06T17:49:04.199Z,2.40
2019-05-06T17:51:37.262Z,3.10
2019-05-06T17:54:05.605Z,2.30
2019-05-06T17:56:34.157Z,2.30
2019-05-06T17:59:03.293Z,2.93
2019-05-06T18:01:36.275Z,3.33
2019-05-06T18:04:05.516Z,2.87
2019-05-06T18:06:34.219Z,2.40
2019-05-06T18:09:02.872Z,4.13
2019-05-06T18:11:33.179Z,2.40
2019-05-06T18:14:03.768Z,5.53
2019-05-06T18:16:33.464Z,4.50
2019-05-06T18:19:03.175Z,2.83
2019-05-06T18:21:31.977Z,5.30
2019-05-06T18:24:02.794Z,2.50
2019-05-06T18:26:33.376Z,4.23
2019-05-06T18:29:01.103Z,3.80
2019-05-06T18:31:29.679Z,2.53
2019-05-06T18:33:58.269Z,3.73
2019-05-06T18:36:26.761Z,3.57
2019-05-06T18:38:55.427Z,3.30
2019-05-06T18:41:23.977Z,5.50
2019-05-06T18:43:53.551Z,3.53
2019-05-06T18:46:22.210Z,2.50
2019-05-06T18:48:52.464Z,3.30
2019-05-06T18:51:22.356Z,3.17
2019-05-06T18:53:52.391Z,4.53
2019-05-06T18:56:22.431Z,2.97
2019-05-06T18:58:52.941Z,4.43
2019-05-06T19:01:23.187Z,2.53
2019-05-06T19:03:53.377Z,3.60
2019-05-06T19:06:23.196Z,3.70
2019-05-06T19:08:56.438Z,3.10
2019-05-06T19:11:25.318Z,4.77
2019-05-06T19:13:53.831Z,6.53
2019-05-06T19:16:22.522Z,3.20
2019-05-06T19:18:52.218Z,3.73
2019-05-06T19:21:24.266Z,4.03
2019-05-06T19:23:51.944Z,4.43
2019-05-06T19:26:21.498Z,4.13
2019-05-06T19:28:52.552Z,4.00
2019-05-06T19:31:22.277Z,3.17
2019-05-06T19:33:52.626Z,5.73
2019-05-06T19:36:23.279Z,5.30
2019-05-06T19:38:51.079Z,5.63
2019-05-06T19:41:19.590Z,8.00
2019-05-06T19:43:48.076Z,6.97
2019-05-06T19:46:16.666Z,4.17
2019-05-06T19:48:45.515Z,5.80
2019-05-06T19:51:14.006Z,5.07
2019-05-06T19:53:42.917Z,4.10
2019-05-06T19:56:12.335Z,4.13
2019-05-06T19:58:42.868Z,4.27
2019-05-06T20:01:11.742Z,3.20
2019-05-06T20:03:40.342Z,5.43
2019-05-06T20:06:26.493Z,3.67
2019-05-06T20:08:56.733Z,4.33
2019-05-06T20:11:29.874Z,4.67
2019-05-06T20:13:58.454Z,4.07
2019-05-06T20:16:26.987Z,4.53
2019-05-06T20:18:55.531Z,4.40
2019-05-06T20:21:24.127Z,4.97
2019-05-06T20:23:52.737Z,4.57
2019-05-06T20:26:21.983Z,5.37
2019-05-06T20:28:52.532Z,4.73
2019-05-06T20:31:22.652Z,5.47
2019-05-06T20:33:52.835Z,3.77
2019-05-06T20:36:22.565Z,5.90
2019-05-06T20:38:51.605Z,5.53
2019-05-06T20:41:22.029Z,6.27
2019-05-06T20:43:50.414Z,3.40
2019-05-06T20:46:18.952Z,4.83
2019-05-06T20:48:47.461Z,6.17
2019-05-06T20:51:15.978Z,3.93
2019-05-06T20:53:44.462Z,5.47
2019-05-06T20:56:12.978Z,5.33
2019-05-06T20:58:42.022Z,3.60
2019-05-06T21:01:10.674Z,6.67
2019-05-06T21:03:39.151Z,4.00
2019-05-06T21:06:07.635Z,4.10
2019-05-06T21:08:36.170Z,5.27
2019-05-06T21:11:04.635Z,4.83
2019-05-06T21:13:35.554Z,5.43
2019-05-06T21:16:03.476Z,6.40
2019-05-06T21:18:32.537Z,6.60
2019-05-06T21:21:02.054Z,5.30
2019-05-06T21:23:32.078Z,4.10
2019-05-06T21:26:03.338Z,6.23
2019-05-06T21:28:31.876Z,4.77
2019-05-06T21:31:00.363Z,7.87
2019-05-06T21:33:28.823Z,7.13
2019-05-06T21:35:57.308Z,5.13
2019-05-06T21:38:25.780Z,4.20
2019-05-06T21:40:54.400Z,4.73
2019-05-06T21:43:22.905Z,4.13
2019-05-06T21:45:51.434Z,4.40
2019-05-06T21:48:22.100Z,6.67
2019-05-06T21:50:52.077Z,5.03
2019-05-06T21:53:20.439Z,9.67
2019-05-06T21:55:48.908Z,5.47
2019-05-06T21:58:17.375Z,5.23
2019-05-06T22:00:47.723Z,5.00
2019-05-06T22:03:16.259Z,5.07
2019-05-06T22:05:44.805Z,5.23
2019-05-06T22:08:13.263Z,5.13
2019-05-06T22:10:42.385Z,8.50
2019-05-06T22:13:14.276Z,8.87
2019-05-06T22:15:42.114Z,6.47
2019-05-06T22:18:12.461Z,6.70
2019-05-06T22:20:58.723Z,4.90
2019-05-06T22:23:28.858Z,4.37
2019-05-06T22:26:08.560Z,6.57
2019-05-06T22:28:27.579Z,6.47
2019-05-06T22:30:56.127Z,5.30
2019-05-06T22:33:24.606Z,4.83
2019-05-06T22:35:54.934Z,8.63
2019-05-06T22:38:23.523Z,5.70
2019-05-06T22:40:53.013Z,6.10
2019-05-06T22:43:26.915Z,10.07
2019-05-06T22:45:55.367Z,5.67
2019-05-06T22:48:23.909Z,7.63
2019-05-06T22:50:53.023Z,6.77
2019-05-06T22:53:24.757Z,5.60
2019-05-06T22:55:53.215Z,5.63
2019-05-06T22:58:22.773Z,7.33
2019-05-06T23:00:53.804Z,9.03
2019-05-06T23:03:29.518Z,6.07
2019-05-06T23:05:58.055Z,5.90
2019-05-06T23:08:26.902Z,6.17
2019-05-06T23:10:55.444Z,6.33
2019-05-06T23:13:23.928Z,9.30
2019-05-06T23:15:52.454Z,6.67
2019-05-06T23:18:22.320Z,7.17
2019-05-06T23:20:52.708Z,7.77
2019-05-06T23:23:22.221Z,10.03
2019-05-06T23:26:08.484Z,8.80
2019-05-06T23:28:36.965Z,7.40
2019-05-06T23:31:05.436Z,7.63
2019-05-06T23:33:34.003Z,6.37
2019-05-06T23:36:02.688Z,7.27
2019-05-06T23:39:07.467Z,7.80
2019-05-06T23:42:12.168Z,6.13
2019-05-06T23:45:16.685Z,7.80
2019-05-06T23:48:22.753Z,6.67
2019-05-06T23:51:27.099Z,7.60
2019-05-06T23:54:32.827Z,8.17
2019-05-06T23:57:00.274Z,7.33
2019-05-06T23:59:28.743Z,7.37
